Eastampton, New Jersey
Current Conditions -  °F | °C
As of 1:54 PM on Sunday 21 Dec 2014 (Local Time) from KVAY Reporting Station
Clear Clear  
Wind Chill: 33°   Ceiling: Unl
Heat Index: 39°   Visibility: 10mi
Dew Point: 22°   Wind: 9mph
Humidity: 50%   Direction: 340°NNW
Pressure: 30.29"   Gusts: NA
Location:  39.9896°N, 74.8021°W
Report Text: KVAY 211854Z AUTO 34008KT 10SM CLR 04/M06 A3029 RMK AO2 SLP259 T00391056
Loading
Personal Weather Stations






























Interactive Weather Map New forecast layout! Learn more

10-Day Weather Forecast

Advertisements
Track Severe Weather on mobile